createdAt,value
2022-08-26T00:00:21.418Z,101325.94
2022-08-26T00:02:49.697Z,101334.16
2022-08-26T00:05:18.281Z,101341.50
2022-08-26T00:07:47.447Z,101330.66
2022-08-26T00:10:15.989Z,101332.69
2022-08-26T00:12:44.398Z,101328.22
2022-08-26T00:15:16.837Z,101335.44
2022-08-26T00:17:47.560Z,101330.09
2022-08-26T00:20:20.423Z,101334.00
2022-08-26T00:22:48.525Z,101329.09
2022-08-26T00:25:18.005Z,101332.00
2022-08-26T00:27:47.332Z,101337.47
2022-08-26T00:30:24.150Z,101333.16
2022-08-26T00:32:57.302Z,101327.69
2022-08-26T00:35:28.077Z,101327.69
2022-08-26T00:37:57.429Z,101326.97
2022-08-26T00:40:33.640Z,101333.44
2022-08-26T00:43:02.677Z,101326.22
2022-08-26T00:45:44.444Z,101333.56
2022-08-26T00:48:17.329Z,101328.25
2022-08-26T00:50:54.072Z,101325.50
2022-08-26T00:53:27.809Z,101323.78
2022-08-26T00:56:02.740Z,101312.97
2022-08-26T00:58:35.101Z,101317.75
2022-08-26T01:01:03.366Z,101322.06
2022-08-26T01:03:35.785Z,101327.69
2022-08-26T01:06:05.323Z,101324.53
2022-08-26T01:08:41.615Z,101327.41
2022-08-26T01:11:10.797Z,101333.91
2022-08-26T01:13:40.555Z,101327.81
2022-08-26T01:16:15.949Z,101328.13
2022-08-26T01:18:46.847Z,101328.25
2022-08-26T01:21:27.251Z,101329.44
2022-08-26T01:23:58.933Z,101326.84
2022-08-26T01:26:32.859Z,101317.03
2022-08-26T01:29:03.933Z,101322.53
2022-08-26T01:31:41.724Z,101324.66
2022-08-26T01:34:17.386Z,101327.53
2022-08-26T01:36:50.725Z,101317.75
2022-08-26T01:39:21.449Z,101317.91
2022-08-26T01:41:54.392Z,101319.91
2022-08-26T01:44:27.938Z,101320.19
2022-08-26T01:46:58.381Z,101317.59
2022-08-26T01:49:27.731Z,101316.00
2022-08-26T01:51:58.217Z,101317.16
2022-08-26T01:54:27.982Z,101320.91
2022-08-26T01:56:56.403Z,101321.06
2022-08-26T01:59:26.426Z,101318.59
2022-08-26T02:01:55.059Z,101314.13
2022-08-26T02:04:28.635Z,101311.63
2022-08-26T02:06:58.252Z,101307.19
2022-08-26T02:09:29.231Z,101311.94
2022-08-26T02:12:01.835Z,101313.09
2022-08-26T02:14:34.976Z,101319.56
2022-08-26T02:17:13.037Z,101309.75
2022-08-26T02:19:47.059Z,101312.63
2022-08-26T02:22:21.717Z,101310.91
2022-08-26T02:24:54.411Z,101303.72
2022-08-26T02:27:26.457Z,101303.72
2022-08-26T02:30:01.373Z,101304.84
2022-08-26T02:32:29.797Z,101301.41
2022-08-26T02:34:58.207Z,101305.88
2022-08-26T02:37:31.129Z,101305.72
2022-08-26T02:40:01.086Z,101302.84
2022-08-26T02:42:29.989Z,101299.97
2022-08-26T02:44:58.273Z,101297.09
2022-08-26T02:47:26.588Z,101301.53
2022-08-26T02:49:57.587Z,101301.44
2022-08-26T02:52:26.456Z,101305.16
2022-08-26T02:54:56.533Z,101297.09
2022-08-26T02:57:26.180Z,101302.69
2022-08-26T02:59:54.631Z,101301.97
2022-08-26T03:02:23.142Z,101293.06
2022-08-26T03:04:57.787Z,101293.22
2022-08-26T03:07:29.114Z,101290.63
2022-08-26T03:09:58.218Z,101289.75
2022-08-26T03:12:27.991Z,101286.16
2022-08-26T03:14:56.327Z,101289.00
2022-08-26T03:17:24.602Z,101279.94
2022-08-26T03:19:57.367Z,101282.81
2022-08-26T03:22:27.009Z,101281.81
2022-08-26T03:24:55.922Z,101270.88
2022-08-26T03:27:24.188Z,101266.56
2022-08-26T03:30:11.793Z,101264.97
2022-08-26T03:32:41.419Z,101265.28
2022-08-26T03:35:10.765Z,101267.13
2022-08-26T03:37:40.286Z,101268.25
2022-08-26T03:40:11.781Z,101270.28
2022-08-26T03:42:41.861Z,101271.28
2022-08-26T03:45:17.492Z,101270.41
2022-08-26T03:47:47.201Z,101276.88
2022-08-26T03:50:22.879Z,101266.97
2022-08-26T03:52:52.931Z,101271.56
2022-08-26T03:55:23.889Z,101263.50
2022-08-26T03:57:52.596Z,101258.19
2022-08-26T04:00:22.691Z,101255.59
2022-08-26T04:02:53.292Z,101257.59
2022-08-26T04:05:23.000Z,101263.06
2022-08-26T04:07:51.919Z,101259.47
2022-08-26T04:10:29.303Z,101261.22
2022-08-26T04:12:59.317Z,101263.94
2022-08-26T04:15:29.446Z,101257.72
2022-08-26T04:17:58.302Z,101256.88
2022-08-26T04:20:27.203Z,101253.28
2022-08-26T04:22:56.446Z,101258.88
2022-08-26T04:25:25.416Z,101255.28
2022-08-26T04:27:54.941Z,101260.75
2022-08-26T04:30:23.554Z,101247.22
2022-08-26T04:32:55.072Z,101260.03
2022-08-26T04:35:25.971Z,101252.69
2022-08-26T04:37:55.604Z,101253.56
2022-08-26T04:40:24.542Z,101260.75
2022-08-26T04:42:54.282Z,101259.75
2022-08-26T04:45:23.022Z,101252.41
2022-08-26T04:47:56.704Z,101256.00
2022-08-26T04:50:27.019Z,101262.06
2022-08-26T04:52:56.380Z,101249.00
2022-08-26T04:55:38.680Z,101253.16
2022-08-26T04:58:12.134Z,101257.94
2022-08-26T05:00:40.383Z,101255.34
2022-08-26T05:03:10.716Z,101253.63
2022-08-26T05:05:41.243Z,101255.53
2022-08-26T05:08:11.319Z,101252.19
2022-08-26T05:10:45.152Z,101257.00
2022-08-26T05:13:15.713Z,101266.34
2022-08-26T05:15:45.885Z,101261.88
2022-08-26T05:18:21.203Z,101262.19
2022-08-26T05:20:54.754Z,101258.69
2022-08-26T05:23:24.534Z,101265.19
2022-08-26T05:25:59.278Z,101262.69
2022-08-26T05:28:30.773Z,101273.78
2022-08-26T05:30:59.117Z,101265.00
2022-08-26T05:33:29.469Z,101263.38
2022-08-26T05:35:57.713Z,101266.25
2022-08-26T05:38:26.020Z,101260.22
2022-08-26T05:40:58.653Z,101260.03
2022-08-26T05:43:27.804Z,101268.38
2022-08-26T05:45:56.254Z,101267.59
2022-08-26T05:48:25.077Z,101267.00
2022-08-26T05:50:55.019Z,101268.28
2022-08-26T05:53:26.242Z,101265.25
2022-08-26T05:55:58.131Z,101262.75
2022-08-26T05:58:27.615Z,101261.41
2022-08-26T06:01:03.416Z,101252.06
2022-08-26T06:03:34.395Z,101254.34
2022-08-26T06:06:06.702Z,101248.09
2022-08-26T06:08:35.716Z,101257.56
2022-08-26T06:11:07.479Z,101256.81
2022-08-26T06:13:41.802Z,101257.94
2022-08-26T06:16:13.176Z,101261.78
2022-08-26T06:18:44.921Z,101264.44
2022-08-26T06:21:18.898Z,101257.00
2022-08-26T06:24:07.590Z,101266.72
2022-08-26T06:26:38.055Z,101266.31
2022-08-26T06:31:36.070Z,101257.53
2022-08-26T06:34:10.384Z,101250.56
2022-08-26T06:36:44.763Z,101251.97
2022-08-26T06:39:17.774Z,101260.63
2022-08-26T06:41:46.931Z,101259.97
2022-08-26T06:44:16.950Z,101254.72
2022-08-26T06:46:45.703Z,101262.97
2022-08-26T06:49:14.232Z,101265.09
2022-08-26T06:51:47.006Z,101263.75
2022-08-26T06:54:17.347Z,101261.69
2022-08-26T06:56:45.724Z,101255.56
2022-08-26T06:59:16.445Z,101250.09
2022-08-26T07:01:46.420Z,101250.47
2022-08-26T07:04:21.872Z,101242.59
2022-08-26T07:06:53.975Z,101253.13
2022-08-26T07:09:24.055Z,101246.56
2022-08-26T07:11:55.423Z,101250.22
2022-08-26T07:14:25.280Z,101246.00
2022-08-26T07:16:55.567Z,101234.00
2022-08-26T07:19:29.770Z,101250.16
2022-08-26T07:22:03.237Z,101260.47
2022-08-26T07:24:32.812Z,101263.22
2022-08-26T07:27:02.948Z,101256.00
2022-08-26T07:29:34.380Z,101251.84
2022-08-26T07:32:02.998Z,101261.69
2022-08-26T07:34:32.112Z,101260.31
2022-08-26T07:37:02.820Z,101267.03
2022-08-26T07:39:32.825Z,101266.16
2022-08-26T07:42:03.825Z,101268.06
2022-08-26T07:44:36.708Z,101273.88
2022-08-26T07:47:19.345Z,101258.03
2022-08-26T07:49:54.866Z,101265.25
2022-08-26T07:52:26.918Z,101261.38
2022-08-26T07:54:56.616Z,101264.94
2022-08-26T07:57:25.119Z,101259.56
2022-08-26T07:59:55.067Z,101258.91
2022-08-26T08:02:25.310Z,101255.19
2022-08-26T08:04:54.510Z,101253.03
2022-08-26T08:07:38.594Z,101256.38
2022-08-26T08:10:16.211Z,101247.72
2022-08-26T08:12:44.953Z,101254.38
2022-08-26T08:15:14.535Z,101250.47
2022-08-26T08:17:43.932Z,101259.38
2022-08-26T08:20:15.049Z,101247.16
2022-08-26T08:22:45.083Z,101252.91
2022-08-26T08:25:14.756Z,101260.22
2022-08-26T08:27:45.689Z,101248.28
2022-08-26T08:30:15.729Z,101256.38
2022-08-26T08:32:51.202Z,101249.19
2022-08-26T08:35:22.491Z,101254.19
2022-08-26T08:37:54.784Z,101252.31
2022-08-26T08:40:26.297Z,101254.75
2022-08-26T08:43:03.783Z,101255.72
2022-08-26T08:45:39.442Z,101256.56
2022-08-26T08:48:15.236Z,101262.97
2022-08-26T08:50:48.378Z,101255.31
2022-08-26T08:53:26.453Z,101257.88
2022-08-26T08:56:11.392Z,101263.41
2022-08-26T08:58:56.927Z,101262.56
2022-08-26T09:01:42.643Z,101258.38
2022-08-26T09:04:30.863Z,101257.19
2022-08-26T09:07:03.937Z,101248.81
2022-08-26T09:09:42.076Z,101252.75
2022-08-26T09:12:20.414Z,101245.94
2022-08-26T09:15:03.936Z,101254.34
2022-08-26T09:17:49.065Z,101251.03
2022-08-26T09:20:31.010Z,101248.25
2022-08-26T09:22:59.385Z,101241.94
2022-08-26T09:25:29.368Z,101244.00
2022-08-26T09:27:59.874Z,101244.28
2022-08-26T09:30:33.023Z,101234.34
2022-08-26T09:33:10.326Z,101235.56
2022-08-26T09:35:43.468Z,101229.81
2022-08-26T09:38:26.794Z,101230.53
2022-08-26T09:41:01.196Z,101227.94
2022-08-26T09:43:30.674Z,101236.31
2022-08-26T09:46:16.725Z,101236.03
2022-08-26T09:48:45.373Z,101231.91
2022-08-26T09:51:32.598Z,101237.72
2022-08-26T09:54:03.182Z,101232.50
2022-08-26T09:56:37.826Z,101234.56
2022-08-26T09:59:12.031Z,101233.19
2022-08-26T10:01:44.782Z,101233.53
2022-08-26T10:04:21.580Z,101228.56
2022-08-26T10:06:59.738Z,101221.50
2022-08-26T10:09:30.024Z,101233.22
2022-08-26T10:12:05.357Z,101222.88
2022-08-26T10:14:39.846Z,101222.22
2022-08-26T10:17:17.417Z,101218.09
2022-08-26T10:19:56.689Z,101220.13
2022-08-26T10:22:35.578Z,101222.69
2022-08-26T10:25:11.009Z,101225.47
2022-08-26T10:27:53.464Z,101213.94
2022-08-26T10:30:25.285Z,101219.88
2022-08-26T10:33:01.704Z,101215.59
2022-08-26T10:35:31.911Z,101209.41
2022-08-26T10:38:09.095Z,101218.31
2022-08-26T10:40:52.902Z,101216.47
2022-08-26T10:43:27.185Z,101214.47
2022-08-26T10:46:01.840Z,101205.16
2022-08-26T10:48:42.706Z,101206.88
2022-08-26T10:51:14.018Z,101207.72
2022-08-26T10:53:51.374Z,101207.44
2022-08-26T10:56:41.254Z,101204.31
2022-08-26T10:59:21.997Z,101194.72
2022-08-26T11:02:00.584Z,101200.53
2022-08-26T11:04:52.212Z,101195.22
2022-08-26T11:07:42.553Z,101188.47
2022-08-26T11:11:04.173Z,101183.75
2022-08-26T11:14:01.246Z,101178.69
2022-08-26T11:16:42.878Z,101177.94
2022-08-26T11:20:00.266Z,101173.03
2022-08-26T11:22:32.881Z,101171.97
2022-08-26T11:25:09.453Z,101170.44
2022-08-26T11:28:05.252Z,101171.31
2022-08-26T11:30:56.922Z,101183.91
2022-08-26T11:33:59.530Z,101174.94
2022-08-26T11:36:59.959Z,101167.03
2022-08-26T11:39:38.647Z,101170.47
2022-08-26T11:42:24.832Z,101161.25
2022-08-26T11:44:58.099Z,101155.50
2022-08-26T11:47:32.822Z,101151.63
2022-08-26T11:50:16.422Z,101141.53
2022-08-26T11:52:53.905Z,101139.19
2022-08-26T11:55:23.454Z,101135.56
2022-08-26T11:57:56.691Z,101130.91
2022-08-26T12:00:33.313Z,101134.56
2022-08-26T12:03:09.606Z,101123.41
2022-08-26T12:05:46.003Z,101110.97
2022-08-26T12:08:19.152Z,101111.16
2022-08-26T12:10:48.289Z,101106.44
2022-08-26T12:13:26.514Z,101105.16
2022-08-26T12:15:57.936Z,101108.97
2022-08-26T12:18:31.202Z,101100.84
2022-08-26T12:21:16.005Z,101104.91
2022-08-26T12:23:47.692Z,101093.28
2022-08-26T12:26:26.478Z,101096.94
2022-08-26T12:29:00.259Z,101079.88
2022-08-26T12:31:34.253Z,101087.25
2022-08-26T12:34:07.112Z,101088.78
2022-08-26T12:36:50.795Z,101083.00
2022-08-26T12:39:29.385Z,101089.03
2022-08-26T12:41:59.864Z,101081.34
2022-08-26T12:44:53.785Z,101086.44
2022-08-26T12:47:43.015Z,101095.34
2022-08-26T12:50:19.221Z,101086.94
2022-08-26T12:53:01.268Z,101079.97
2022-08-26T12:55:43.750Z,101090.66
2022-08-26T12:58:22.656Z,101089.66
2022-08-26T13:00:52.319Z,101085.50
2022-08-26T13:03:43.889Z,101093.25
2022-08-26T13:06:17.268Z,101097.41
2022-08-26T13:08:48.360Z,101116.25
2022-08-26T13:11:20.791Z,101110.19
2022-08-26T13:13:51.756Z,101105.84
2022-08-26T13:16:20.826Z,101103.44
2022-08-26T13:18:50.166Z,101109.25
2022-08-26T13:21:21.549Z,101109.16
2022-08-26T13:23:53.521Z,101108.03
2022-08-26T13:26:22.463Z,101102.81
2022-08-26T13:29:01.882Z,101104.25
2022-08-26T13:31:34.572Z,101102.47
2022-08-26T13:34:03.781Z,101099.81
2022-08-26T13:36:32.197Z,101103.09
2022-08-26T13:39:02.005Z,101093.53
2022-08-26T13:41:32.066Z,101095.53
2022-08-26T13:44:00.973Z,101101.34
2022-08-26T13:46:30.312Z,101092.50
2022-08-26T13:48:59.619Z,101083.81
2022-08-26T13:51:29.231Z,101081.34
2022-08-26T13:53:58.514Z,101073.97
2022-08-26T13:56:30.452Z,101076.94
2022-08-26T13:59:00.122Z,101083.97
2022-08-26T14:01:31.143Z,101083.25
2022-08-26T14:03:59.712Z,101076.94
2022-08-26T14:06:28.178Z,101079.81
2022-08-26T14:08:56.681Z,101080.28
2022-08-26T14:11:25.438Z,101070.56
2022-08-26T14:13:55.108Z,101054.94
2022-08-26T14:16:28.221Z,101059.69
2022-08-26T14:18:56.652Z,101062.09
2022-08-26T14:21:33.692Z,101058.19
2022-08-26T14:24:01.999Z,101058.84
2022-08-26T14:26:30.697Z,101055.72
2022-08-26T14:29:02.516Z,101060.38
2022-08-26T14:31:33.478Z,101056.06
2022-08-26T14:34:05.935Z,101061.13
2022-08-26T14:36:35.588Z,101069.81
2022-08-26T14:39:07.841Z,101061.31
2022-08-26T14:41:40.089Z,101074.56
2022-08-26T14:44:14.601Z,101065.91
2022-08-26T14:46:49.601Z,101067.81
2022-08-26T14:49:19.712Z,101061.78
2022-08-26T14:51:48.242Z,101059.22
2022-08-26T14:54:19.922Z,101056.84
2022-08-26T14:56:52.284Z,101060.94
2022-08-26T14:59:25.221Z,101065.72
2022-08-26T15:01:54.353Z,101069.41
2022-08-26T15:04:24.770Z,101075.22
2022-08-26T15:06:54.304Z,101075.91
2022-08-26T15:09:23.965Z,101076.94
2022-08-26T15:11:53.117Z,101075.22
2022-08-26T15:14:24.175Z,101076.28
2022-08-26T15:16:55.849Z,101072.06
2022-08-26T15:19:27.191Z,101075.72
2022-08-26T15:21:55.597Z,101069.41
2022-08-26T15:24:28.783Z,101072.75
2022-08-26T15:26:57.239Z,101073.28
2022-08-26T15:29:26.996Z,101065.75
2022-08-26T15:31:57.643Z,101068.19
2022-08-26T15:34:26.415Z,101079.53
2022-08-26T15:36:55.193Z,101086.69
2022-08-26T15:39:23.580Z,101079.38
2022-08-26T15:41:52.103Z,101077.22
2022-08-26T15:44:20.706Z,101086.25
2022-08-26T15:46:55.351Z,101093.50
2022-08-26T15:49:26.186Z,101089.47
2022-08-26T15:51:55.096Z,101099.50
2022-08-26T15:54:25.141Z,101093.97
2022-08-26T15:56:53.873Z,101094.34
2022-08-26T15:59:23.267Z,101100.28
2022-08-26T16:01:53.436Z,101099.81
2022-08-26T16:04:22.254Z,101096.97
2022-08-26T16:06:52.187Z,101091.91
2022-08-26T16:09:24.335Z,101087.69
2022-08-26T16:11:53.025Z,101079.81
2022-08-26T16:14:21.670Z,101084.50
2022-08-26T16:16:50.555Z,101079.63
2022-08-26T16:19:21.097Z,101078.56
2022-08-26T16:21:50.800Z,101080.75
2022-08-26T16:24:24.806Z,101087.00
2022-08-26T16:26:55.876Z,101094.06
2022-08-26T16:29:24.630Z,101099.66
2022-08-26T16:31:53.842Z,101102.50
2022-08-26T16:34:23.719Z,101107.06
2022-08-26T16:36:52.780Z,101108.03
2022-08-26T16:39:21.194Z,101112.41
2022-08-26T16:41:49.601Z,101110.16
2022-08-26T16:44:17.941Z,101096.59
2022-08-26T16:46:46.627Z,101097.31
2022-08-26T16:49:15.272Z,101095.25
2022-08-26T16:51:45.144Z,101094.94
2022-08-26T16:54:13.520Z,101097.88
2022-08-26T16:56:41.838Z,101094.44
2022-08-26T16:59:11.748Z,101100.28
2022-08-26T17:01:40.301Z,101098.06
2022-08-26T17:04:08.695Z,101095.66
2022-08-26T17:06:37.233Z,101087.59
2022-08-26T17:09:07.546Z,101081.38
2022-08-26T17:11:36.200Z,101081.53
2022-08-26T17:14:05.300Z,101092.72
2022-08-26T17:16:33.827Z,101091.19
2022-08-26T17:19:04.462Z,101083.97
2022-08-26T17:21:35.141Z,101083.97
2022-08-26T17:24:04.881Z,101087.41
2022-08-26T17:26:34.859Z,101082.94
2022-08-26T17:29:03.141Z,101068.13
2022-08-26T17:31:32.536Z,101069.19
2022-08-26T17:34:00.885Z,101076.06
2022-08-26T17:36:29.424Z,101074.69
2022-08-26T17:38:59.057Z,101067.78
2022-08-26T17:41:28.574Z,101068.81
2022-08-26T17:43:58.231Z,101073.47
2022-08-26T17:46:26.995Z,101078.28
2022-08-26T17:48:55.423Z,101075.88
2022-08-26T17:51:24.364Z,101074.31
2022-08-26T17:53:53.255Z,101084.66
2022-08-26T17:56:28.659Z,101087.06
2022-08-26T17:59:02.519Z,101085.69
2022-08-26T18:01:32.989Z,101077.97
2022-08-26T18:04:01.595Z,101072.97
2022-08-26T18:06:31.317Z,101073.66
2022-08-26T18:09:00.812Z,101076.41
2022-08-26T18:11:29.668Z,101068.66
2022-08-26T18:13:59.900Z,101079.16
2022-08-26T18:16:31.885Z,101082.94
2022-08-26T18:19:00.885Z,101081.91
2022-08-26T18:21:29.489Z,101079.34
2022-08-26T18:23:58.146Z,101077.94
2022-08-26T18:26:29.469Z,101085.16
2022-08-26T18:28:59.763Z,101089.78
2022-08-26T18:31:28.679Z,101087.69
2022-08-26T18:33:57.049Z,101086.78
2022-08-26T18:36:28.961Z,101093.28
2022-08-26T18:38:58.251Z,101089.84
2022-08-26T18:41:29.561Z,101096.84
2022-08-26T18:43:59.822Z,101096.50
2022-08-26T18:46:29.286Z,101100.91
2022-08-26T18:48:58.693Z,101091.47
2022-08-26T18:51:30.223Z,101085.94
2022-08-26T18:53:59.692Z,101090.03
2022-08-26T18:56:28.721Z,101107.84
2022-08-26T18:58:58.958Z,101115.84
2022-08-26T19:01:28.531Z,101106.53
2022-08-26T19:03:57.834Z,101124.38
2022-08-26T19:06:28.233Z,101126.41
2022-08-26T19:08:58.178Z,101119.66
2022-08-26T19:11:31.308Z,101124.47
2022-08-26T19:14:03.438Z,101126.69
2022-08-26T19:16:32.152Z,101122.56
2022-08-26T19:19:01.378Z,101136.56
2022-08-26T19:21:30.552Z,101124.38
2022-08-26T19:24:00.977Z,101135.66
2022-08-26T19:26:30.553Z,101131.38
2022-08-26T19:28:59.920Z,101137.00
2022-08-26T19:31:29.776Z,101131.66
2022-08-26T19:33:59.517Z,101142.63
2022-08-26T19:36:29.261Z,101132.00
2022-08-26T19:38:58.397Z,101134.38
2022-08-26T19:41:37.193Z,101138.13
2022-08-26T19:44:10.155Z,101131.63
2022-08-26T19:46:40.161Z,101131.78
2022-08-26T19:49:08.596Z,101134.03
2022-08-26T19:51:37.473Z,101129.78
2022-08-26T19:54:06.458Z,101133.09
2022-08-26T19:56:34.938Z,101128.28
2022-08-26T19:59:03.924Z,101125.56
2022-08-26T20:01:32.315Z,101118.19
2022-08-26T20:04:02.018Z,101130.19
2022-08-26T20:06:30.314Z,101127.44
2022-08-26T20:08:59.100Z,101127.28
2022-08-26T20:11:28.017Z,101130.72
2022-08-26T20:13:57.132Z,101128.66
2022-08-26T20:16:25.485Z,101129.38
2022-08-26T20:19:11.323Z,101130.94
2022-08-26T20:21:43.050Z,101128.19
2022-08-26T20:24:14.930Z,101131.66
2022-08-26T20:26:45.441Z,101128.91
2022-08-26T20:29:16.916Z,101130.78
2022-08-26T20:31:45.690Z,101121.13
2022-08-26T20:34:16.528Z,101126.78
2022-08-26T20:36:48.318Z,101129.00
2022-08-26T20:39:18.667Z,101118.88
2022-08-26T20:41:47.000Z,101127.28
2022-08-26T20:44:16.727Z,101126.41
2022-08-26T20:46:45.572Z,101116.47
2022-08-26T20:49:14.864Z,101127.59
2022-08-26T20:51:48.980Z,101125.72
2022-08-26T20:54:19.477Z,101121.09
2022-08-26T20:56:47.945Z,101127.28
2022-08-26T20:59:17.063Z,101117.16
2022-08-26T21:01:45.629Z,101120.59
2022-08-26T21:04:18.719Z,101121.47
2022-08-26T21:06:52.832Z,101121.47
2022-08-26T21:09:22.968Z,101132.44
2022-08-26T21:11:52.465Z,101129.00
2022-08-26T21:14:23.237Z,101125.56
2022-08-26T21:16:54.644Z,101127.44
2022-08-26T21:19:23.394Z,101117.16
2022-08-26T21:21:53.152Z,101118.19
2022-08-26T21:24:21.562Z,101116.31
2022-08-26T21:26:49.933Z,101127.28
2022-08-26T21:29:18.302Z,101124.84
2022-08-26T21:31:47.066Z,101127.91
2022-08-26T21:34:17.085Z,101128.91
2022-08-26T21:36:45.723Z,101132.84
2022-08-26T21:39:16.419Z,101132.16
2022-08-26T21:41:45.756Z,101134.03
2022-08-26T21:44:16.203Z,101137.31
2022-08-26T21:46:46.230Z,101134.25
2022-08-26T21:49:16.803Z,101135.28
2022-08-26T21:51:48.337Z,101134.56
2022-08-26T21:54:19.467Z,101129.09
2022-08-26T21:56:49.228Z,101132.69
2022-08-26T21:59:20.010Z,101125.16
2022-08-26T22:01:48.851Z,101126.19
2022-08-26T22:04:18.631Z,101130.63
2022-08-26T22:06:52.002Z,101126.19
2022-08-26T22:09:25.898Z,101126.19
2022-08-26T22:11:56.899Z,101125.16
2022-08-26T22:14:30.629Z,101129.09
2022-08-26T22:17:00.321Z,101134.19
2022-08-26T22:19:29.875Z,101139.28
2022-08-26T22:21:59.476Z,101136.69
2022-08-26T22:24:29.442Z,101136.69
2022-08-26T22:26:58.058Z,101138.41
2022-08-26T22:29:27.188Z,101134.53
2022-08-26T22:31:55.648Z,101138.81
2022-08-26T22:34:24.042Z,101134.38
2022-08-26T22:36:52.802Z,101125.97
2022-08-26T22:39:25.327Z,101128.56
2022-08-26T22:41:56.858Z,101130.28
2022-08-26T22:44:25.636Z,101129.25
2022-08-26T22:46:55.530Z,101123.59
2022-08-26T22:49:24.975Z,101118.63
2022-08-26T22:51:53.269Z,101125.88
2022-08-26T22:54:21.835Z,101125.88
2022-08-26T22:56:50.188Z,101125.03
2022-08-26T22:59:19.940Z,101118.09
2022-08-26T23:01:48.338Z,101114.84
2022-08-26T23:04:16.846Z,101111.56
2022-08-26T23:06:47.841Z,101114.06
2022-08-26T23:09:18.408Z,101110.94
2022-08-26T23:11:48.434Z,101116.03
2022-08-26T23:14:18.068Z,101112.91
2022-08-26T23:16:48.428Z,101118.97
2022-08-26T23:19:22.778Z,101115.00
2022-08-26T23:21:51.859Z,101119.94
2022-08-26T23:24:20.563Z,101118.06
2022-08-26T23:26:49.867Z,101116.50
2022-08-26T23:29:18.478Z,101118.50
2022-08-26T23:31:48.369Z,101122.59
2022-08-26T23:34:34.139Z,101119.47
2022-08-26T23:37:06.255Z,101120.94
2022-08-26T23:39:37.228Z,101114.22
2022-08-26T23:42:06.608Z,101124.47
2022-08-26T23:44:35.433Z,101124.75
2022-08-26T23:47:06.207Z,101114.28
2022-08-26T23:49:35.064Z,101111.69
2022-08-26T23:52:21.075Z,101113.72
2022-08-26T23:54:49.419Z,101113.88
2022-08-26T23:57:19.521Z,101109.56
2022-08-26T23:59:49.046Z,101111.59
